sensor_id;sensor_type;location;lat;lon;timestamp;P1;durP1;ratioP1;P2;durP2;ratioP2
65045;SDS011;54657;52.022;5.534;2023-09-18T00:01:49;15.57;;;12.60;;
65045;SDS011;54657;52.022;5.534;2023-09-18T00:04:14;14.93;;;13.07;;
65045;SDS011;54657;52.022;5.534;2023-09-18T00:06:40;16.83;;;12.77;;
65045;SDS011;54657;52.022;5.534;2023-09-18T00:09:05;18.88;;;13.60;;
65045;SDS011;54657;52.022;5.534;2023-09-18T00:11:36;14.32;;;12.40;;
65045;SDS011;54657;52.022;5.534;2023-09-18T00:14:02;18.90;;;13.35;;
65045;SDS011;54657;52.022;5.534;2023-09-18T00:16:28;15.15;;;13.20;;
65045;SDS011;54657;52.022;5.534;2023-09-18T00:18:54;18.83;;;13.00;;
65045;SDS011;54657;52.022;5.534;2023-09-18T00:21:19;17.65;;;14.65;;
65045;SDS011;54657;52.022;5.534;2023-09-18T00:23:45;18.00;;;14.20;;
65045;SDS011;54657;52.022;5.534;2023-09-18T00:26:11;17.58;;;13.98;;
65045;SDS011;54657;52.022;5.534;2023-09-18T00:28:37;20.42;;;15.65;;
65045;SDS011;54657;52.022;5.534;2023-09-18T00:31:02;17.55;;;13.88;;
65045;SDS011;54657;52.022;5.534;2023-09-18T00:33:28;16.80;;;14.38;;
65045;SDS011;54657;52.022;5.534;2023-09-18T00:35:53;15.57;;;13.55;;
65045;SDS011;54657;52.022;5.534;2023-09-18T00:38:19;18.30;;;14.57;;
65045;SDS011;54657;52.022;5.534;2023-09-18T00:40:45;19.48;;;13.63;;
65045;SDS011;54657;52.022;5.534;2023-09-18T00:43:11;15.68;;;13.50;;
65045;SDS011;54657;52.022;5.534;2023-09-18T00:45:38;15.77;;;14.02;;
65045;SDS011;54657;52.022;5.534;2023-09-18T00:48:06;22.42;;;15.68;;
65045;SDS011;54657;52.022;5.534;2023-09-18T00:50:32;15.90;;;14.25;;
65045;SDS011;54657;52.022;5.534;2023-09-18T00:52:58;18.70;;;14.43;;
65045;SDS011;54657;52.022;5.534;2023-09-18T00:55:26;16.25;;;14.55;;
65045;SDS011;54657;52.022;5.534;2023-09-18T00:57:57;18.13;;;14.43;;
65045;SDS011;54657;52.022;5.534;2023-09-18T01:00:23;16.92;;;14.48;;
65045;SDS011;54657;52.022;5.534;2023-09-18T01:02:49;15.48;;;13.98;;
65045;SDS011;54657;52.022;5.534;2023-09-18T01:05:14;17.88;;;14.32;;
65045;SDS011;54657;52.022;5.534;2023-09-18T01:07:45;16.20;;;14.10;;
65045;SDS011;54657;52.022;5.534;2023-09-18T01:10:11;17.85;;;14.27;;
65045;SDS011;54657;52.022;5.534;2023-09-18T01:15:22;18.13;;;14.43;;
65045;SDS011;54657;52.022;5.534;2023-09-18T01:17:55;16.95;;;14.82;;
65045;SDS011;54657;52.022;5.534;2023-09-18T01:20:21;16.60;;;14.80;;
65045;SDS011;54657;52.022;5.534;2023-09-18T01:22:46;16.67;;;14.13;;
65045;SDS011;54657;52.022;5.534;2023-09-18T01:25:14;16.92;;;15.23;;
65045;SDS011;54657;52.022;5.534;2023-09-18T01:27:40;17.25;;;14.90;;
65045;SDS011;54657;52.022;5.534;2023-09-18T01:30:07;16.15;;;14.02;;
65045;SDS011;54657;52.022;5.534;2023-09-18T01:32:33;17.20;;;15.48;;
65045;SDS011;54657;52.022;5.534;2023-09-18T01:35:01;18.02;;;14.93;;
65045;SDS011;54657;52.022;5.534;2023-09-18T01:37:29;16.27;;;14.57;;
65045;SDS011;54657;52.022;5.534;2023-09-18T01:39:56;16.38;;;14.10;;
65045;SDS011;54657;52.022;5.534;2023-09-18T01:42:24;19.27;;;14.65;;
65045;SDS011;54657;52.022;5.534;2023-09-18T01:44:51;16.02;;;14.07;;
65045;SDS011;54657;52.022;5.534;2023-09-18T01:47:19;14.73;;;13.10;;
65045;SDS011;54657;52.022;5.534;2023-09-18T01:49:48;15.93;;;14.23;;
65045;SDS011;54657;52.022;5.534;2023-09-18T01:52:13;15.32;;;13.52;;
65045;SDS011;54657;52.022;5.534;2023-09-18T01:54:39;17.60;;;14.23;;
65045;SDS011;54657;52.022;5.534;2023-09-18T01:57:04;15.55;;;13.95;;
65045;SDS011;54657;52.022;5.534;2023-09-18T01:59:32;14.35;;;12.77;;
65045;SDS011;54657;52.022;5.534;2023-09-18T02:01:58;15.95;;;14.00;;
65045;SDS011;54657;52.022;5.534;2023-09-18T02:04:23;17.02;;;13.82;;
65045;SDS011;54657;52.022;5.534;2023-09-18T02:06:50;15.40;;;13.70;;
65045;SDS011;54657;52.022;5.534;2023-09-18T02:09:17;19.05;;;14.30;;
65045;SDS011;54657;52.022;5.534;2023-09-18T02:11:44;15.80;;;13.20;;
65045;SDS011;54657;52.022;5.534;2023-09-18T02:14:11;15.02;;;13.48;;
65045;SDS011;54657;52.022;5.534;2023-09-18T02:16:37;16.83;;;14.10;;
65045;SDS011;54657;52.022;5.534;2023-09-18T02:19:09;16.20;;;14.45;;
65045;SDS011;54657;52.022;5.534;2023-09-18T02:21:35;18.17;;;14.90;;
65045;SDS011;54657;52.022;5.534;2023-09-18T02:24:01;15.50;;;13.70;;
65045;SDS011;54657;52.022;5.534;2023-09-18T02:26:27;16.10;;;14.23;;
65045;SDS011;54657;52.022;5.534;2023-09-18T02:28:54;17.75;;;12.85;;
65045;SDS011;54657;52.022;5.534;2023-09-18T02:31:22;15.27;;;13.77;;
65045;SDS011;54657;52.022;5.534;2023-09-18T02:33:48;16.23;;;14.52;;
65045;SDS011;54657;52.022;5.534;2023-09-18T02:36:14;15.65;;;13.95;;
65045;SDS011;54657;52.022;5.534;2023-09-18T02:38:39;19.40;;;15.27;;
65045;SDS011;54657;52.022;5.534;2023-09-18T02:41:05;19.65;;;15.80;;
65045;SDS011;54657;52.022;5.534;2023-09-18T02:43:30;17.67;;;14.48;;
65045;SDS011;54657;52.022;5.534;2023-09-18T02:45:56;20.80;;;15.73;;
65045;SDS011;54657;52.022;5.534;2023-09-18T02:48:22;21.02;;;16.65;;
65045;SDS011;54657;52.022;5.534;2023-09-18T02:50:47;20.92;;;16.77;;
65045;SDS011;54657;52.022;5.534;2023-09-18T02:53:20;19.30;;;17.30;;
65045;SDS011;54657;52.022;5.534;2023-09-18T02:55:49;21.63;;;17.17;;
65045;SDS011;54657;52.022;5.534;2023-09-18T02:58:16;20.67;;;17.52;;
65045;SDS011;54657;52.022;5.534;2023-09-18T03:00:42;20.70;;;18.08;;
65045;SDS011;54657;52.022;5.534;2023-09-18T03:03:08;19.65;;;17.45;;
65045;SDS011;54657;52.022;5.534;2023-09-18T03:05:35;21.17;;;16.75;;
65045;SDS011;54657;52.022;5.534;2023-09-18T03:08:01;21.98;;;19.20;;
65045;SDS011;54657;52.022;5.534;2023-09-18T03:10:27;21.00;;;18.60;;
65045;SDS011;54657;52.022;5.534;2023-09-18T03:12:52;20.73;;;18.52;;
65045;SDS011;54657;52.022;5.534;2023-09-18T03:15:18;23.27;;;19.73;;
65045;SDS011;54657;52.022;5.534;2023-09-18T03:17:44;21.10;;;18.88;;
65045;SDS011;54657;52.022;5.534;2023-09-18T03:20:09;24.75;;;19.55;;
65045;SDS011;54657;52.022;5.534;2023-09-18T03:22:35;24.42;;;19.65;;
65045;SDS011;54657;52.022;5.534;2023-09-18T03:25:01;23.98;;;20.00;;
65045;SDS011;54657;52.022;5.534;2023-09-18T03:27:27;23.33;;;17.85;;
65045;SDS011;54657;52.022;5.534;2023-09-18T03:29:54;19.52;;;17.52;;
65045;SDS011;54657;52.022;5.534;2023-09-18T03:32:20;18.70;;;16.80;;
65045;SDS011;54657;52.022;5.534;2023-09-18T03:34:46;20.20;;;17.42;;
65045;SDS011;54657;52.022;5.534;2023-09-18T03:37:11;18.63;;;16.05;;
65045;SDS011;54657;52.022;5.534;2023-09-18T03:39:37;19.25;;;16.73;;
65045;SDS011;54657;52.022;5.534;2023-09-18T03:42:02;21.50;;;16.38;;
65045;SDS011;54657;52.022;5.534;2023-09-18T03:44:28;19.60;;;15.38;;
65045;SDS011;54657;52.022;5.534;2023-09-18T03:46:54;15.63;;;14.05;;
65045;SDS011;54657;52.022;5.534;2023-09-18T03:49:19;14.80;;;13.25;;
65045;SDS011;54657;52.022;5.534;2023-09-18T03:51:45;13.65;;;11.57;;
65045;SDS011;54657;52.022;5.534;2023-09-18T03:54:11;13.85;;;12.05;;
65045;SDS011;54657;52.022;5.534;2023-09-18T03:56:36;12.43;;;10.30;;
65045;SDS011;54657;52.022;5.534;2023-09-18T03:59:02;13.52;;;10.43;;
65045;SDS011;54657;52.022;5.534;2023-09-18T04:01:29;13.07;;;9.88;;
65045;SDS011;54657;52.022;5.534;2023-09-18T04:03:55;11.35;;;10.05;;
65045;SDS011;54657;52.022;5.534;2023-09-18T04:06:21;14.80;;;10.77;;
65045;SDS011;54657;52.022;5.534;2023-09-18T04:08:49;12.82;;;9.95;;
65045;SDS011;54657;52.022;5.534;2023-09-18T04:11:15;14.82;;;9.95;;
65045;SDS011;54657;52.022;5.534;2023-09-18T04:13:40;13.57;;;9.35;;
65045;SDS011;54657;52.022;5.534;2023-09-18T04:16:06;15.35;;;10.45;;
65045;SDS011;54657;52.022;5.534;2023-09-18T04:18:32;10.80;;;9.23;;
65045;SDS011;54657;52.022;5.534;2023-09-18T04:20:58;12.80;;;10.15;;
65045;SDS011;54657;52.022;5.534;2023-09-18T04:23:24;13.95;;;9.88;;
65045;SDS011;54657;52.022;5.534;2023-09-18T04:25:52;11.60;;;9.57;;
65045;SDS011;54657;52.022;5.534;2023-09-18T04:28:20;13.85;;;9.73;;
65045;SDS011;54657;52.022;5.534;2023-09-18T04:30:46;11.85;;;9.68;;
65045;SDS011;54657;52.022;5.534;2023-09-18T04:33:13;13.15;;;9.23;;
65045;SDS011;54657;52.022;5.534;2023-09-18T04:35:39;14.07;;;9.52;;
65045;SDS011;54657;52.022;5.534;2023-09-18T04:38:06;11.75;;;9.43;;
65045;SDS011;54657;52.022;5.534;2023-09-18T04:40:33;14.73;;;9.55;;
65045;SDS011;54657;52.022;5.534;2023-09-18T04:42:59;12.60;;;9.80;;
65045;SDS011;54657;52.022;5.534;2023-09-18T04:45:25;16.25;;;10.75;;
65045;SDS011;54657;52.022;5.534;2023-09-18T04:47:51;13.05;;;9.90;;
65045;SDS011;54657;52.022;5.534;2023-09-18T04:50:20;12.48;;;10.07;;
65045;SDS011;54657;52.022;5.534;2023-09-18T04:52:46;14.85;;;10.50;;
65045;SDS011;54657;52.022;5.534;2023-09-18T04:55:12;12.90;;;9.77;;
65045;SDS011;54657;52.022;5.534;2023-09-18T04:57:38;12.75;;;10.38;;
65045;SDS011;54657;52.022;5.534;2023-09-18T05:00:05;16.58;;;9.77;;
65045;SDS011;54657;52.022;5.534;2023-09-18T05:02:37;12.05;;;9.77;;
65045;SDS011;54657;52.022;5.534;2023-09-18T05:05:03;18.73;;;10.80;;
65045;SDS011;54657;52.022;5.534;2023-09-18T05:07:29;17.55;;;10.45;;
65045;SDS011;54657;52.022;5.534;2023-09-18T05:09:55;14.90;;;9.60;;
65045;SDS011;54657;52.022;5.534;2023-09-18T05:12:21;13.25;;;9.23;;
65045;SDS011;54657;52.022;5.534;2023-09-18T05:14:47;12.93;;;8.93;;
65045;SDS011;54657;52.022;5.534;2023-09-18T05:17:14;13.02;;;9.35;;
65045;SDS011;54657;52.022;5.534;2023-09-18T05:19:40;12.07;;;8.57;;
65045;SDS011;54657;52.022;5.534;2023-09-18T05:22:07;10.40;;;8.43;;
65045;SDS011;54657;52.022;5.534;2023-09-18T05:24:35;17.30;;;9.05;;
65045;SDS011;54657;52.022;5.534;2023-09-18T05:27:04;11.57;;;8.82;;
65045;SDS011;54657;52.022;5.534;2023-09-18T05:29:33;12.93;;;8.52;;
65045;SDS011;54657;52.022;5.534;2023-09-18T05:32:01;12.82;;;7.68;;
65045;SDS011;54657;52.022;5.534;2023-09-18T05:34:27;9.68;;;8.77;;
65045;SDS011;54657;52.022;5.534;2023-09-18T05:36:52;10.88;;;8.18;;
65045;SDS011;54657;52.022;5.534;2023-09-18T05:39:18;9.20;;;7.80;;
65045;SDS011;54657;52.022;5.534;2023-09-18T05:41:44;8.77;;;7.47;;
65045;SDS011;54657;52.022;5.534;2023-09-18T05:44:10;8.88;;;7.97;;
65045;SDS011;54657;52.022;5.534;2023-09-18T05:46:36;10.93;;;8.05;;
65045;SDS011;54657;52.022;5.534;2023-09-18T05:49:04;10.35;;;8.27;;
65045;SDS011;54657;52.022;5.534;2023-09-18T05:51:30;8.50;;;7.70;;
65045;SDS011;54657;52.022;5.534;2023-09-18T05:53:57;8.77;;;7.13;;
65045;SDS011;54657;52.022;5.534;2023-09-18T05:56:23;12.93;;;8.15;;
65045;SDS011;54657;52.022;5.534;2023-09-18T05:58:49;9.65;;;8.02;;
65045;SDS011;54657;52.022;5.534;2023-09-18T06:01:14;8.25;;;7.45;;
65045;SDS011;54657;52.022;5.534;2023-09-18T06:03:40;11.07;;;7.70;;
65045;SDS011;54657;52.022;5.534;2023-09-18T06:06:05;9.93;;;7.85;;
65045;SDS011;54657;52.022;5.534;2023-09-18T06:08:31;10.02;;;7.47;;
65045;SDS011;54657;52.022;5.534;2023-09-18T06:10:58;8.82;;;7.50;;
65045;SDS011;54657;52.022;5.534;2023-09-18T06:13:24;12.02;;;7.75;;
65045;SDS011;54657;52.022;5.534;2023-09-18T06:15:50;9.82;;;7.68;;
65045;SDS011;54657;52.022;5.534;2023-09-18T06:18:17;9.60;;;7.72;;
65045;SDS011;54657;52.022;5.534;2023-09-18T06:20:45;9.27;;;7.13;;
65045;SDS011;54657;52.022;5.534;2023-09-18T06:23:11;12.43;;;8.18;;
65045;SDS011;54657;52.022;5.534;2023-09-18T06:25:37;11.45;;;7.47;;
65045;SDS011;54657;52.022;5.534;2023-09-18T06:28:03;13.07;;;7.88;;
65045;SDS011;54657;52.022;5.534;2023-09-18T06:30:29;13.40;;;8.32;;
65045;SDS011;54657;52.022;5.534;2023-09-18T06:32:56;11.00;;;8.38;;
65045;SDS011;54657;52.022;5.534;2023-09-18T06:35:21;12.07;;;8.38;;
65045;SDS011;54657;52.022;5.534;2023-09-18T06:37:47;11.57;;;8.00;;
65045;SDS011;54657;52.022;5.534;2023-09-18T06:40:13;11.38;;;8.43;;
65045;SDS011;54657;52.022;5.534;2023-09-18T06:42:39;13.70;;;8.38;;
65045;SDS011;54657;52.022;5.534;2023-09-18T06:45:05;8.90;;;7.63;;
65045;SDS011;54657;52.022;5.534;2023-09-18T06:47:32;12.52;;;7.68;;
65045;SDS011;54657;52.022;5.534;2023-09-18T06:49:58;11.10;;;8.10;;
65045;SDS011;54657;52.022;5.534;2023-09-18T06:52:25;11.77;;;8.15;;
65045;SDS011;54657;52.022;5.534;2023-09-18T06:54:51;12.57;;;7.18;;
65045;SDS011;54657;52.022;5.534;2023-09-18T06:57:17;10.20;;;7.70;;
65045;SDS011;54657;52.022;5.534;2023-09-18T06:59:43;8.65;;;7.07;;
65045;SDS011;54657;52.022;5.534;2023-09-18T07:02:09;9.43;;;7.45;;
65045;SDS011;54657;52.022;5.534;2023-09-18T07:04:35;8.10;;;7.10;;
65045;SDS011;54657;52.022;5.534;2023-09-18T07:07:01;10.35;;;6.97;;
65045;SDS011;54657;52.022;5.534;2023-09-18T07:09:27;9.23;;;6.45;;
65045;SDS011;54657;52.022;5.534;2023-09-18T07:11:53;10.95;;;6.82;;
65045;SDS011;54657;52.022;5.534;2023-09-18T07:14:18;8.75;;;7.15;;
65045;SDS011;54657;52.022;5.534;2023-09-18T07:16:44;8.57;;;6.20;;
65045;SDS011;54657;52.022;5.534;2023-09-18T07:19:09;7.97;;;6.13;;
65045;SDS011;54657;52.022;5.534;2023-09-18T07:21:37;7.60;;;6.22;;
65045;SDS011;54657;52.022;5.534;2023-09-18T07:24:03;7.80;;;5.60;;
65045;SDS011;54657;52.022;5.534;2023-09-18T07:26:29;7.10;;;5.60;;
65045;SDS011;54657;52.022;5.534;2023-09-18T07:28:55;7.45;;;5.70;;
65045;SDS011;54657;52.022;5.534;2023-09-18T07:31:21;9.63;;;5.28;;
65045;SDS011;54657;52.022;5.534;2023-09-18T07:33:47;7.30;;;5.28;;
65045;SDS011;54657;52.022;5.534;2023-09-18T07:36:13;7.10;;;4.90;;
65045;SDS011;54657;52.022;5.534;2023-09-18T07:38:40;12.15;;;6.03;;
65045;SDS011;54657;52.022;5.534;2023-09-18T07:41:08;7.00;;;4.97;;
65045;SDS011;54657;52.022;5.534;2023-09-18T07:43:33;8.10;;;5.05;;
65045;SDS011;54657;52.022;5.534;2023-09-18T07:45:59;6.22;;;5.28;;
65045;SDS011;54657;52.022;5.534;2023-09-18T07:48:26;8.27;;;4.93;;
65045;SDS011;54657;52.022;5.534;2023-09-18T07:50:52;5.80;;;4.95;;
65045;SDS011;54657;52.022;5.534;2023-09-18T07:53:19;7.53;;;5.72;;
65045;SDS011;54657;52.022;5.534;2023-09-18T07:55:45;6.38;;;4.95;;
65045;SDS011;54657;52.022;5.534;2023-09-18T07:58:12;5.78;;;4.75;;
65045;SDS011;54657;52.022;5.534;2023-09-18T08:00:38;5.32;;;4.80;;
65045;SDS011;54657;52.022;5.534;2023-09-18T08:03:04;6.40;;;4.32;;
65045;SDS011;54657;52.022;5.534;2023-09-18T08:05:30;6.30;;;4.45;;
65045;SDS011;54657;52.022;5.534;2023-09-18T08:07:56;6.38;;;4.43;;
65045;SDS011;54657;52.022;5.534;2023-09-18T08:10:24;5.15;;;4.20;;
65045;SDS011;54657;52.022;5.534;2023-09-18T08:12:50;5.53;;;4.32;;
65045;SDS011;54657;52.022;5.534;2023-09-18T08:15:17;6.68;;;4.10;;
65045;SDS011;54657;52.022;5.534;2023-09-18T08:17:46;5.78;;;3.95;;
65045;SDS011;54657;52.022;5.534;2023-09-18T08:20:14;4.97;;;3.75;;
65045;SDS011;54657;52.022;5.534;2023-09-18T08:22:41;4.97;;;4.25;;
65045;SDS011;54657;52.022;5.534;2023-09-18T08:25:08;4.07;;;3.72;;
65045;SDS011;54657;52.022;5.534;2023-09-18T08:27:36;5.95;;;3.60;;
65045;SDS011;54657;52.022;5.534;2023-09-18T08:30:05;5.35;;;3.70;;
65045;SDS011;54657;52.022;5.534;2023-09-18T08:32:31;6.40;;;3.70;;
65045;SDS011;54657;52.022;5.534;2023-09-18T08:34:58;4.18;;;3.25;;
65045;SDS011;54657;52.022;5.534;2023-09-18T08:37:26;3.80;;;3.40;;
65045;SDS011;54657;52.022;5.534;2023-09-18T08:39:52;3.85;;;3.22;;
65045;SDS011;54657;52.022;5.534;2023-09-18T08:42:17;4.35;;;3.15;;
65045;SDS011;54657;52.022;5.534;2023-09-18T08:44:45;4.93;;;3.03;;
65045;SDS011;54657;52.022;5.534;2023-09-18T08:47:16;3.67;;;2.90;;
65045;SDS011;54657;52.022;5.534;2023-09-18T08:49:44;3.78;;;2.60;;
65045;SDS011;54657;52.022;5.534;2023-09-18T08:52:13;3.75;;;2.90;;
65045;SDS011;54657;52.022;5.534;2023-09-18T08:54:40;4.90;;;3.00;;
65045;SDS011;54657;52.022;5.534;2023-09-18T08:57:07;3.85;;;2.90;;
65045;SDS011;54657;52.022;5.534;2023-09-18T08:59:33;3.40;;;2.80;;
65045;SDS011;54657;52.022;5.534;2023-09-18T09:02:03;2.78;;;2.58;;
65045;SDS011;54657;52.022;5.534;2023-09-18T09:04:29;3.75;;;2.63;;
65045;SDS011;54657;52.022;5.534;2023-09-18T09:06:55;4.43;;;2.88;;
65045;SDS011;54657;52.022;5.534;2023-09-18T09:09:24;3.20;;;2.75;;
65045;SDS011;54657;52.022;5.534;2023-09-18T09:11:51;3.22;;;2.47;;
65045;SDS011;54657;52.022;5.534;2023-09-18T09:14:17;3.83;;;2.40;;
65045;SDS011;54657;52.022;5.534;2023-09-18T09:16:50;7.30;;;2.50;;
65045;SDS011;54657;52.022;5.534;2023-09-18T09:19:16;4.47;;;2.63;;
65045;SDS011;54657;52.022;5.534;2023-09-18T09:21:56;3.15;;;2.65;;
65045;SDS011;54657;52.022;5.534;2023-09-18T09:24:44;5.60;;;2.42;;
65045;SDS011;54657;52.022;5.534;2023-09-18T09:27:09;3.60;;;2.15;;
65045;SDS011;54657;52.022;5.534;2023-09-18T09:29:35;2.33;;;2.10;;
65045;SDS011;54657;52.022;5.534;2023-09-18T09:32:11;2.42;;;2.03;;
65045;SDS011;54657;52.022;5.534;2023-09-18T09:34:38;2.20;;;2.10;;
65045;SDS011;54657;52.022;5.534;2023-09-18T09:37:04;2.08;;;1.90;;
65045;SDS011;54657;52.022;5.534;2023-09-18T09:39:29;3.20;;;1.75;;
65045;SDS011;54657;52.022;5.534;2023-09-18T09:41:55;2.65;;;2.00;;
65045;SDS011;54657;52.022;5.534;2023-09-18T09:44:27;4.30;;;2.00;;
65045;SDS011;54657;52.022;5.534;2023-09-18T09:46:53;3.63;;;1.90;;
65045;SDS011;54657;52.022;5.534;2023-09-18T09:49:19;5.05;;;2.33;;
65045;SDS011;54657;52.022;5.534;2023-09-18T09:51:48;2.60;;;2.08;;
65045;SDS011;54657;52.022;5.534;2023-09-18T09:54:13;4.95;;;2.08;;
65045;SDS011;54657;52.022;5.534;2023-09-18T09:56:39;2.30;;;2.10;;
65045;SDS011;54657;52.022;5.534;2023-09-18T09:59:08;2.95;;;1.85;;
65045;SDS011;54657;52.022;5.534;2023-09-18T10:01:35;3.78;;;1.92;;
65045;SDS011;54657;52.022;5.534;2023-09-18T10:04:34;3.45;;;2.20;;
65045;SDS011;54657;52.022;5.534;2023-09-18T10:06:58;2.55;;;1.90;;
65045;SDS011;54657;52.022;5.534;2023-09-18T10:09:32;2.42;;;2.22;;
65045;SDS011;54657;52.022;5.534;2023-09-18T10:12:00;2.92;;;1.83;;
65045;SDS011;54657;52.022;5.534;2023-09-18T10:14:30;3.22;;;1.95;;
65045;SDS011;54657;52.022;5.534;2023-09-18T10:16:57;3.15;;;2.00;;
65045;SDS011;54657;52.022;5.534;2023-09-18T10:24:59;3.92;;;2.60;;
65045;SDS011;54657;52.022;5.534;2023-09-18T10:27:48;3.97;;;2.35;;
65045;SDS011;54657;52.022;5.534;2023-09-18T10:30:17;4.25;;;3.15;;
65045;SDS011;54657;52.022;5.534;2023-09-18T10:32:44;4.00;;;3.60;;
65045;SDS011;54657;52.022;5.534;2023-09-18T10:35:13;4.75;;;3.88;;
65045;SDS011;54657;52.022;5.534;2023-09-18T10:37:41;4.00;;;3.70;;
65045;SDS011;54657;52.022;5.534;2023-09-18T10:40:08;5.22;;;4.25;;
65045;SDS011;54657;52.022;5.534;2023-09-18T10:42:35;4.15;;;3.75;;
65045;SDS011;54657;52.022;5.534;2023-09-18T10:45:04;6.60;;;4.68;;
65045;SDS011;54657;52.022;5.534;2023-09-18T10:47:30;8.60;;;5.03;;
65045;SDS011;54657;52.022;5.534;2023-09-18T10:49:57;8.85;;;5.97;;
65045;SDS011;54657;52.022;5.534;2023-09-18T10:52:23;7.40;;;6.07;;
65045;SDS011;54657;52.022;5.534;2023-09-18T10:54:48;5.80;;;5.30;;
65045;SDS011;54657;52.022;5.534;2023-09-18T10:57:14;7.57;;;6.00;;
65045;SDS011;54657;52.022;5.534;2023-09-18T10:59:44;7.32;;;5.95;;
65045;SDS011;54657;52.022;5.534;2023-09-18T11:02:10;8.90;;;6.07;;
65045;SDS011;54657;52.022;5.534;2023-09-18T11:04:40;6.93;;;6.22;;
65045;SDS011;54657;52.022;5.534;2023-09-18T11:07:07;10.10;;;6.53;;
65045;SDS011;54657;52.022;5.534;2023-09-18T11:09:43;10.10;;;6.82;;
65045;SDS011;54657;52.022;5.534;2023-09-18T11:12:10;8.98;;;6.75;;
65045;SDS011;54657;52.022;5.534;2023-09-18T11:14:50;9.95;;;6.40;;
65045;SDS011;54657;52.022;5.534;2023-09-18T11:20:06;6.78;;;5.63;;
65045;SDS011;54657;52.022;5.534;2023-09-18T11:25:39;7.10;;;5.05;;
65045;SDS011;54657;52.022;5.534;2023-09-18T11:28:07;7.70;;;4.93;;
65045;SDS011;54657;52.022;5.534;2023-09-18T11:30:37;5.18;;;4.43;;
65045;SDS011;54657;52.022;5.534;2023-09-18T11:33:04;6.38;;;3.63;;
65045;SDS011;54657;52.022;5.534;2023-09-18T11:35:34;4.50;;;3.40;;
65045;SDS011;54657;52.022;5.534;2023-09-18T11:38:07;8.00;;;3.95;;
65045;SDS011;54657;52.022;5.534;2023-09-18T11:40:35;5.47;;;3.70;;
65045;SDS011;54657;52.022;5.534;2023-09-18T11:45:56;7.43;;;3.13;;
65045;SDS011;54657;52.022;5.534;2023-09-18T11:48:23;3.58;;;2.90;;
65045;SDS011;54657;52.022;5.534;2023-09-18T11:50:50;3.15;;;2.70;;
65045;SDS011;54657;52.022;5.534;2023-09-18T11:53:17;4.70;;;2.95;;
65045;SDS011;54657;52.022;5.534;2023-09-18T11:55:44;4.10;;;2.85;;
65045;SDS011;54657;52.022;5.534;2023-09-18T11:58:10;4.97;;;2.90;;
65045;SDS011;54657;52.022;5.534;2023-09-18T12:00:35;7.32;;;2.63;;
65045;SDS011;54657;52.022;5.534;2023-09-18T12:03:14;4.65;;;2.60;;
65045;SDS011;54657;52.022;5.534;2023-09-18T12:05:57;7.68;;;3.15;;
65045;SDS011;54657;52.022;5.534;2023-09-18T12:08:25;4.78;;;2.92;;
65045;SDS011;54657;52.022;5.534;2023-09-18T12:10:54;4.85;;;2.80;;
65045;SDS011;54657;52.022;5.534;2023-09-18T12:13:20;5.30;;;2.90;;
65045;SDS011;54657;52.022;5.534;2023-09-18T12:15:47;3.97;;;3.17;;
65045;SDS011;54657;52.022;5.534;2023-09-18T12:18:14;4.65;;;3.13;;
65045;SDS011;54657;52.022;5.534;2023-09-18T12:20:47;6.40;;;2.80;;
65045;SDS011;54657;52.022;5.534;2023-09-18T12:23:14;4.18;;;3.17;;
65045;SDS011;54657;52.022;5.534;2023-09-18T12:25:40;3.88;;;2.83;;
65045;SDS011;54657;52.022;5.534;2023-09-18T12:28:06;6.20;;;2.90;;
65045;SDS011;54657;52.022;5.534;2023-09-18T12:30:33;6.28;;;3.25;;
65045;SDS011;54657;52.022;5.534;2023-09-18T12:32:59;4.47;;;3.05;;
65045;SDS011;54657;52.022;5.534;2023-09-18T12:35:25;4.72;;;2.78;;
65045;SDS011;54657;52.022;5.534;2023-09-18T12:37:54;4.07;;;3.15;;
65045;SDS011;54657;52.022;5.534;2023-09-18T12:40:25;3.13;;;2.80;;
65045;SDS011;54657;52.022;5.534;2023-09-18T12:42:53;3.28;;;2.97;;
65045;SDS011;54657;52.022;5.534;2023-09-18T12:45:20;4.03;;;3.22;;
65045;SDS011;54657;52.022;5.534;2023-09-18T12:47:47;7.30;;;3.40;;
65045;SDS011;54657;52.022;5.534;2023-09-18T12:50:13;4.80;;;3.08;;
65045;SDS011;54657;52.022;5.534;2023-09-18T12:52:39;4.38;;;2.85;;
65045;SDS011;54657;52.022;5.534;2023-09-18T12:55:05;4.35;;;3.00;;
65045;SDS011;54657;52.022;5.534;2023-09-18T12:57:32;6.88;;;3.10;;
65045;SDS011;54657;52.022;5.534;2023-09-18T12:59:58;4.38;;;3.05;;
65045;SDS011;54657;52.022;5.534;2023-09-18T13:02:23;6.15;;;2.78;;
65045;SDS011;54657;52.022;5.534;2023-09-18T13:04:53;3.53;;;2.75;;
65045;SDS011;54657;52.022;5.534;2023-09-18T13:07:19;4.07;;;2.65;;
65045;SDS011;54657;52.022;5.534;2023-09-18T13:09:59;6.28;;;2.60;;
65045;SDS011;54657;52.022;5.534;2023-09-18T13:12:38;4.60;;;2.80;;
65045;SDS011;54657;52.022;5.534;2023-09-18T13:15:04;4.50;;;2.40;;
65045;SDS011;54657;52.022;5.534;2023-09-18T13:17:43;3.17;;;2.40;;
65045;SDS011;54657;52.022;5.534;2023-09-18T13:20:17;3.88;;;2.40;;
65045;SDS011;54657;52.022;5.534;2023-09-18T13:22:48;3.65;;;2.47;;
65045;SDS011;54657;52.022;5.534;2023-09-18T13:25:21;5.38;;;2.58;;
65045;SDS011;54657;52.022;5.534;2023-09-18T13:27:48;4.18;;;2.53;;
65045;SDS011;54657;52.022;5.534;2023-09-18T13:30:15;2.55;;;2.35;;
65045;SDS011;54657;52.022;5.534;2023-09-18T13:32:42;2.88;;;2.35;;
65045;SDS011;54657;52.022;5.534;2023-09-18T13:35:13;4.30;;;2.17;;
65045;SDS011;54657;52.022;5.534;2023-09-18T13:37:42;3.17;;;2.17;;
65045;SDS011;54657;52.022;5.534;2023-09-18T13:40:09;3.08;;;2.15;;
65045;SDS011;54657;52.022;5.534;2023-09-18T13:42:36;3.92;;;2.47;;
65045;SDS011;54657;52.022;5.534;2023-09-18T13:45:04;5.35;;;2.03;;
65045;SDS011;54657;52.022;5.534;2023-09-18T13:47:31;2.33;;;2.10;;
65045;SDS011;54657;52.022;5.534;2023-09-18T13:49:57;3.72;;;2.05;;
65045;SDS011;54657;52.022;5.534;2023-09-18T13:52:25;2.40;;;2.20;;
65045;SDS011;54657;52.022;5.534;2023-09-18T13:54:51;2.50;;;2.00;;
65045;SDS011;54657;52.022;5.534;2023-09-18T13:57:20;3.85;;;2.28;;
65045;SDS011;54657;52.022;5.534;2023-09-18T13:59:46;5.85;;;2.38;;
65045;SDS011;54657;52.022;5.534;2023-09-18T14:02:13;3.05;;;2.15;;
65045;SDS011;54657;52.022;5.534;2023-09-18T14:04:39;4.10;;;2.25;;
65045;SDS011;54657;52.022;5.534;2023-09-18T14:07:05;3.75;;;2.25;;
65045;SDS011;54657;52.022;5.534;2023-09-18T14:09:31;3.63;;;2.17;;
65045;SDS011;54657;52.022;5.534;2023-09-18T14:11:57;3.25;;;2.20;;
65045;SDS011;54657;52.022;5.534;2023-09-18T14:14:26;3.63;;;2.00;;
65045;SDS011;54657;52.022;5.534;2023-09-18T14:16:51;2.85;;;1.90;;
65045;SDS011;54657;52.022;5.534;2023-09-18T14:19:18;2.83;;;1.92;;
65045;SDS011;54657;52.022;5.534;2023-09-18T14:21:44;5.72;;;2.17;;
65045;SDS011;54657;52.022;5.534;2023-09-18T14:24:12;2.33;;;1.80;;
65045;SDS011;54657;52.022;5.534;2023-09-18T14:26:47;2.35;;;1.75;;
65045;SDS011;54657;52.022;5.534;2023-09-18T14:32:07;5.85;;;1.90;;
65045;SDS011;54657;52.022;5.534;2023-09-18T14:34:34;2.97;;;1.90;;
65045;SDS011;54657;52.022;5.534;2023-09-18T14:37:01;4.57;;;2.05;;
65045;SDS011;54657;52.022;5.534;2023-09-18T14:39:30;3.45;;;2.33;;
65045;SDS011;54657;52.022;5.534;2023-09-18T14:41:57;3.13;;;2.20;;
65045;SDS011;54657;52.022;5.534;2023-09-18T14:44:23;3.88;;;1.88;;
65045;SDS011;54657;52.022;5.534;2023-09-18T14:46:48;1.70;;;1.60;;
65045;SDS011;54657;52.022;5.534;2023-09-18T14:49:17;1.63;;;1.52;;
65045;SDS011;54657;52.022;5.534;2023-09-18T14:51:43;2.40;;;2.05;;
65045;SDS011;54657;52.022;5.534;2023-09-18T14:54:22;1.95;;;1.73;;
65045;SDS011;54657;52.022;5.534;2023-09-18T14:57:49;3.40;;;1.90;;
65045;SDS011;54657;52.022;5.534;2023-09-18T15:00:39;3.13;;;1.90;;